Time,TemperatureF,DewpointF,PressureIn,WindDirection,WindDirectionDegrees,WindSpeedMPH,WindSpeedGustMPH,Humidity,HourlyPrecipIn,Conditions,Clouds,dailyrainin,SolarRadiationWatts/m^2,SoftwareType,DateUTC
2013-07-09 00:00:00,70.0,70.0,-100.00,South,180,0.0,-999.0,101,-99.99,,,-99.99,0.000000,,2013-07-09 04:00:00,
2013-07-09 00:43:00,70.0,70.0,-100.00,South,180,0.0,-999.0,101,-99.99,,,-99.99,0.000000,,2013-07-09 04:43:00,
2013-07-09 00:53:00,70.0,70.0,-100.00,South,180,0.0,-999.0,101,-99.99,,,-99.99,0.000000,,2013-07-09 04:53:00,
2013-07-09 01:00:00,68.0,68.0,-100.00,SSE,157,0.0,-999.0,102,-99.99,,,-99.99,0.000000,,2013-07-09 05:00:00,
2013-07-09 01:34:00,68.0,68.0,-100.00,SSE,157,0.0,-999.0,102,-99.99,,,-99.99,0.000000,,2013-07-09 05:34:00,
2013-07-09 01:42:00,68.0,68.0,-100.00,SSE,157,0.0,-999.0,102,-99.99,,,-99.99,0.000000,,2013-07-09 05:42:00,
2013-07-09 01:52:00,68.0,68.0,-100.00,SSE,157,0.0,-999.0,102,-99.99,,,-99.99,0.000000,,2013-07-09 05:52:00,
2013-07-09 02:00:00,67.0,67.0,-100.00,WNW,292,1.0,-999.0,103,-99.99,,,-99.99,0.000000,,2013-07-09 06:00:00,
2013-07-09 02:43:00,67.0,67.0,-100.00,WNW,292,1.0,-999.0,103,-99.99,,,-99.99,0.000000,,2013-07-09 06:43:00,
2013-07-09 02:53:00,67.0,67.0,-100.00,WNW,292,1.0,-999.0,103,-99.99,,,-99.99,0.000000,,2013-07-09 06:53:00,
2013-07-09 03:00:00,65.0,65.0,-100.00,WSW,247,0.0,-999.0,104,-99.99,,,-99.99,0.000000,,2013-07-09 07:00:00,
2013-07-09 03:43:00,65.0,65.0,-100.00,WSW,247,0.0,-999.0,104,-99.99,,,-99.99,0.000000,,2013-07-09 07:43:00,
2013-07-09 03:53:00,65.0,65.0,-100.00,WSW,247,0.0,-999.0,104,-99.99,,,-99.99,0.000000,,2013-07-09 07:53:00,
2013-07-09 04:00:00,66.0,66.0,-100.00,WSW,247,0.0,-999.0,104,-99.99,,,-99.99,0.000000,,2013-07-09 08:00:00,
2013-07-09 04:43:00,66.0,66.0,-100.00,WSW,247,0.0,-999.0,104,-99.99,,,-99.99,0.000000,,2013-07-09 08:43:00,
2013-07-09 04:52:00,66.0,66.0,-100.00,WSW,247,0.0,-999.0,104,-99.99,,,-99.99,0.000000,,2013-07-09 08:52:00,
2013-07-09 05:00:00,67.0,67.0,-100.00,SW,225,0.0,-999.0,104,-99.99,,,-99.99,0.000000,,2013-07-09 09:00:00,
2013-07-09 05:42:00,67.0,67.0,-100.00,SW,225,0.0,-999.0,104,-99.99,,,-99.99,0.000000,,2013-07-09 09:42:00,
2013-07-09 05:53:00,67.0,67.0,-100.00,SW,225,0.0,-999.0,104,-99.99,,,-99.99,0.000000,,2013-07-09 09:53:00,
2013-07-09 06:00:00,67.0,67.0,-100.00,SSW,202,0.0,-999.0,104,-99.99,,,-99.99,0.000000,,2013-07-09 10:00:00,
2013-07-09 06:42:00,67.0,67.0,-100.00,SSW,202,0.0,-999.0,104,-99.99,,,-99.99,0.000000,,2013-07-09 10:42:00,
2013-07-09 06:52:00,67.0,67.0,-100.00,SSW,202,0.0,-999.0,104,-99.99,,,-99.99,0.000000,,2013-07-09 10:52:00,
2013-07-09 07:00:00,67.0,67.0,-100.00,SW,225,0.0,-999.0,104,-99.99,,,-99.99,12.760000,,2013-07-09 11:00:00,
2013-07-09 07:42:00,67.0,67.0,-100.00,SW,225,0.0,-999.0,104,-99.99,,,-99.99,12.760000,,2013-07-09 11:42:00,
2013-07-09 07:53:00,67.0,67.0,-100.00,SW,225,0.0,-999.0,104,-99.99,,,-99.99,12.760000,,2013-07-09 11:53:00,
2013-07-09 08:00:00,67.0,67.0,-100.00,SSW,202,1.0,-999.0,104,-99.99,,,-99.99,49.880001,,2013-07-09 12:00:00,
2013-07-09 08:43:00,67.0,67.0,-100.00,SSW,202,1.0,-999.0,104,-99.99,,,-99.99,49.880001,,2013-07-09 12:43:00,
2013-07-09 08:53:00,67.0,67.0,-100.00,SSW,202,1.0,-999.0,104,-99.99,,,-99.99,49.880001,,2013-07-09 12:53:00,
2013-07-09 09:00:00,68.0,68.0,-100.00,WSW,247,1.0,-999.0,104,-99.99,,,-99.99,128.759995,,2013-07-09 13:00:00,
2013-07-09 09:43:00,68.0,68.0,-100.00,WSW,247,1.0,-999.0,104,-99.99,,,-99.99,128.759995,,2013-07-09 13:43:00,
2013-07-09 09:53:00,68.0,68.0,-100.00,WSW,247,1.0,-999.0,104,-99.99,,,-99.99,128.759995,,2013-07-09 13:53:00,
2013-07-09 10:00:00,70.0,70.0,-100.00,SSW,202,1.0,-999.0,99,-99.99,,,-99.99,371.200012,,2013-07-09 14:00:00,
2013-07-09 10:43:00,70.0,70.0,-100.00,SSW,202,1.0,-999.0,99,-99.99,,,-99.99,371.200012,,2013-07-09 14:43:00,
2013-07-09 10:53:00,70.0,70.0,-100.00,SSW,202,1.0,-999.0,99,-99.99,,,-99.99,371.200012,,2013-07-09 14:53:00,
2013-07-09 11:00:00,76.0,72.0,-100.00,South,180,1.0,-999.0,87,-99.99,,,-99.99,602.039978,,2013-07-09 15:00:00,
2013-07-09 11:52:00,76.0,72.0,-100.00,South,180,1.0,-999.0,87,-99.99,,,-99.99,602.039978,,2013-07-09 15:52:00,
2013-07-09 12:00:00,79.0,73.0,-100.00,WSW,247,2.0,-999.0,82,-99.99,,,-99.99,729.640015,,2013-07-09 16:00:00,
2013-07-09 12:43:00,79.0,73.0,-100.00,WSW,247,2.0,-999.0,82,-99.99,,,-99.99,729.640015,,2013-07-09 16:43:00,
2013-07-09 12:53:00,79.0,73.0,-100.00,WSW,247,2.0,-999.0,82,-99.99,,,-99.99,729.640015,,2013-07-09 16:53:00,
2013-07-09 13:00:00,80.0,73.0,-100.00,SW,225,5.0,-999.0,79,-99.99,,,-99.99,767.919983,,2013-07-09 17:00:00,
2013-07-09 13:53:00,80.0,73.0,-100.00,SW,225,5.0,-999.0,79,-99.99,,,-99.99,767.919983,,2013-07-09 17:53:00,
2013-07-09 14:00:00,82.0,74.0,-100.00,SW,225,5.0,-999.0,76,-99.99,,,-99.99,651.919983,,2013-07-09 18:00:00,
2013-07-09 14:43:00,82.0,74.0,-100.00,SW,225,5.0,-999.0,76,-99.99,,,-99.99,651.919983,,2013-07-09 18:43:00,
2013-07-09 14:52:00,82.0,74.0,-100.00,SW,225,5.0,-999.0,76,-99.99,,,-99.99,651.919983,,2013-07-09 18:52:00,
2013-07-09 15:00:00,83.0,75.0,-100.00,WSW,247,5.0,-999.0,78,-99.99,,,-99.99,509.239990,,2013-07-09 19:00:00,
2013-07-09 15:42:00,83.0,75.0,-100.00,WSW,247,5.0,-999.0,78,-99.99,,,-99.99,509.239990,,2013-07-09 19:42:00,
2013-07-09 15:52:00,83.0,75.0,-100.00,WSW,247,5.0,-999.0,78,-99.99,,,-99.99,509.239990,,2013-07-09 19:52:00,
2013-07-09 16:00:00,83.0,77.0,-100.00,WSW,247,6.0,-999.0,82,-99.99,,,-99.99,236.639999,,2013-07-09 20:00:00,
2013-07-09 16:43:00,83.0,77.0,-100.00,WSW,247,6.0,-999.0,82,-99.99,,,-99.99,236.639999,,2013-07-09 20:43:00,
2013-07-09 16:52:00,83.0,77.0,-100.00,WSW,247,6.0,-999.0,82,-99.99,,,-99.99,236.639999,,2013-07-09 20:52:00,
2013-07-09 17:00:00,79.0,76.0,-100.00,WSW,247,7.0,-999.0,91,-99.99,,,-99.99,110.199997,,2013-07-09 21:00:00,
2013-07-09 17:43:00,79.0,76.0,-100.00,WSW,247,7.0,-999.0,91,-99.99,,,-99.99,110.199997,,2013-07-09 21:43:00,
2013-07-09 17:52:00,79.0,76.0,-100.00,WSW,247,7.0,-999.0,91,-99.99,,,-99.99,110.199997,,2013-07-09 21:52:00,
2013-07-09 18:00:00,76.0,76.0,-100.00,WSW,247,5.0,-999.0,99,0.01,,,-99.99,113.680000,,2013-07-09 22:00:00,
2013-07-09 18:42:00,76.0,76.0,-100.00,WSW,247,5.0,-999.0,99,0.01,,,-99.99,113.680000,,2013-07-09 22:42:00,
2013-07-09 18:53:00,76.0,76.0,-100.00,WSW,247,5.0,-999.0,99,0.01,,,-99.99,113.680000,,2013-07-09 22:53:00,
2013-07-09 20:00:00,76.0,75.0,-100.00,SSW,202,4.0,-999.0,98,-99.99,,,-99.99,85.839996,,2013-07-10 00:00:00,
2013-07-09 20:43:00,76.0,75.0,-100.00,SSW,202,4.0,-999.0,98,-99.99,,,-99.99,85.839996,,2013-07-10 00:43:00,
2013-07-09 20:52:00,76.0,75.0,-100.00,SSW,202,4.0,-999.0,98,-99.99,,,-99.99,85.839996,,2013-07-10 00:52:00,
2013-07-09 21:00:00,76.0,75.0,-100.00,SSW,202,4.0,-999.0,96,-99.99,,,-99.99,61.480000,,2013-07-10 01:00:00,
2013-07-09 21:43:00,76.0,75.0,-100.00,SSW,202,4.0,-999.0,96,-99.99,,,-99.99,61.480000,,2013-07-10 01:43:00,
2013-07-09 21:53:00,76.0,75.0,-100.00,SSW,202,4.0,-999.0,96,-99.99,,,-99.99,61.480000,,2013-07-10 01:53:00,
2013-07-09 22:00:00,75.0,74.0,-100.00,SSW,202,1.0,-999.0,96,-99.99,,,-99.99,4.640000,,2013-07-10 02:00:00,
2013-07-09 22:53:00,75.0,74.0,-100.00,SSW,202,1.0,-999.0,96,-99.99,,,-99.99,4.640000,,2013-07-10 02:53:00,
2013-07-09 23:00:00,73.0,73.0,-100.00,SW,225,1.0,-999.0,99,-99.99,,,-99.99,0.000000,,2013-07-10 03:00:00,
2013-07-09 23:43:00,73.0,73.0,-100.00,SW,225,1.0,-999.0,99,-99.99,,,-99.99,0.000000,,2013-07-10 03:43:00,
2013-07-09 23:52:00,73.0,73.0,-100.00,SW,225,1.0,-999.0,99,-99.99,,,-99.99,0.000000,,2013-07-10 03:52:00,